Melton Mowbray North, Tasmania

11:11 PM AEST on July 30, 2016 (GMT +1000)
forest | | Change Station

Elev 1201 ft 42.83 °S, 147.02 °E | Updated 2 seconds ago

Mostly Cloudy
Mostly Cloudy
44.1 °F
Feels Like 44 °F
N
0.0
Wind Variable Wind from ENE
Gusts 0.0 mph

Today
High -- | Low -- °F
--% Chance of Precip.
Yesterday
High -- | Low -- °F
Precip. -- in
Pressure 29.65 in
Visibility 6.2 miles
Clouds Few 5000 ft
Mostly Cloudy 11000 ft
Windchill 44 °F
Dew Point 39 °F
Humidity 82%
Rainfall in
Snow Depth Not available.
7:23 AM 5:11 PM
Waning Crescent, 13% visible
METAR YMHB 301300Z 35011KT 9999 FEW050 BKN110 10/06 Q1004
Pressure 29.65 in
Visibility 6.2 miles
Clouds Few 5000 ft
Mostly Cloudy 11000 ft
Windchill 44 °F
Dew Point 39 °F
Humidity 82%
Rainfall in
Snow Depth Not available.
7:23 AM 5:11 PM
Waning Crescent, 13% visible
METAR YMHB 301300Z 35011KT 9999 FEW050 BKN110 10/06 Q1004

10-Day Weather Forecast

Almanac

Astronomy

Jul. 30, 2016 Rise Set
Actual Time
Civil Twilight
Nautical Twilight
Astronomical Twilight
Moon
Length of Visible Light
Length of Day
Tomorrow will be .
, % of the Moon is Illuminated

Today's Extremes

Country Highs Country Lows

Community

WunderPhotos

Upload Photos

1,928,555 photos uploaded!

WunderBlog® & News

Nearby

Air Quality

  Air Quality AQ Index Pollutant
Not available.

Snow Depth

Station Depth Elevation

Earthquake Activity

City Distance Mag. Time & Date
Minimum magnitude displayed is 2.5.

Coastal Water Temperatures

Place Temperature

Stations

Nearby Weather Stations

Station Location Temp. Windchill Dew Point Humidity Wind Precip. Elev Updated Type